Friday, April 27, 2018, 2:12 AM EDT
Back to Local

KLWM, Lawrence Municipal Airport

Location: North Andover, MA, United States Lat: 42.717
Local Time: 2:12 AM EDT ( 6:12 GMT) Lon: -71.133
Time Zone: US/Eastern Elev: 147 ft

Show me the last for .
Show Decoded

2018-04-26 16:54 METAR KLWM 262054Z 26015G22KT 10SM FEW050 19/06 A2966 RMK AO2 PK WND 25028/2040
                 SLP044 T01890061 53023 =
2018-04-26 15:54 METAR KLWM 261954Z 28016G24KT 10SM FEW050 19/07 A2963 RMK AO2 SLP033 T01940067 =
2018-04-26 14:54 METAR KLWM 261854Z 25013G24KT 10SM CLR 21/07 A2961 RMK AO2 PK WND 28027/1818
                 SLP027 T02060067 =
2018-04-26 13:54 METAR KLWM 261754Z 26014G24KT 10SM BKN047 20/09 A2959 RMK AO2 SLP021 60000
                 T02000089 10206 20128 53000 =
2018-04-26 12:54 METAR KLWM 261654Z 26011G20KT 10SM SCT033 19/11 A2958 RMK AO2 SLP017 T01940106 =
2018-04-26 12:39 METAR KLWM 261639Z 27012G18KT 10SM FEW025 SCT029 BKN036 20/12 A2958 RMK AO2
                 T02000122 =
2018-04-26 11:54 METAR KLWM 261554Z 26010G18KT 10SM OVC021 18/12 A2959 RMK AO2 SLP021 T01780122 =
2018-04-26 11:37 METAR KLWM 261537Z 27010KT 10SM BKN019 18/12 A2959 RMK AO2 T01780122 =
2018-04-26 10:54 METAR KLWM 261454Z 24007KT 10SM BKN009 16/12 A2959 RMK AO2 CIG 007V012 SLP020
                 60000 T01560122 53002 =
2018-04-26 10:25 METAR KLWM 261425Z 25007KT 10SM OVC007 14/12 A2960 RMK AO2 CIG 004V010 T01440117
                 =
2018-04-26 09:54 METAR KLWM 261354Z 25007KT 9SM OVC003 13/12 A2959 RMK AO2 SLP019 T01330117 =
2018-04-26 08:54 METAR KLWM 261254Z 29003KT 1 1/2SM BR OVC003 13/12 A2958 RMK AO2 RAE21 SLP016
                 P0000 T01280117 =
2018-04-26 07:54 METAR KLWM 261154Z 25004KT 2 1/2SM -RA BR OVC004 14/13 A2959 RMK AO2 SLP018
                 P0007 60008 70066 T01390128 10139 20128 53001 =
2018-04-26 07:01 METAR KLWM 261101Z 00000KT 4SM -RA BR BKN004 OVC008 14/12 A2959 RMK AO2 P0000
                 T01390122 =
2018-04-26 06:54 METAR KLWM 261054Z VRB03KT 4SM -RA BR OVC006 14/12 A2959 RMK AO2 SLP018 P0001
                 T01390122 =
2018-04-26 05:54 METAR KLWM 260954Z AUTO 15003KT 8SM -RA BKN004 OVC009 13/12 A2957 RMK AO2 RAB03
                 SLP013 P0000 T01330122 =
2018-04-26 05:37 METAR KLWM 260937Z AUTO 14004KT 3SM -RA BR BKN003 OVC009 13/12 A2957 RMK AO2
                 RAB03 P0000 T01330122 =
2018-04-26 05:17 METAR KLWM 260917Z AUTO 17005KT 1 3/4SM -RA BR OVC002 13/12 A2958 RMK AO2 RAB03
                 P0000 T01330117 =
2018-04-26 04:54 METAR KLWM 260854Z AUTO 16003KT 2 1/2SM BR OVC002 13/12 A2958 RMK AO2 SLP017
                 T01330117 56020 =
2018-04-26 03:54 METAR KLWM 260754Z AUTO VRB03KT 5SM BR BKN003 OVC009 13/12 A2960 RMK AO2 SLP022
                 T01330117 =
2018-04-26 03:33 METAR KLWM 260733Z AUTO 13004KT 3SM BR OVC003 13/12 A2961 RMK AO2 T01330117 =
2018-04-26 03:17 METAR KLWM 260717Z AUTO 12004KT 2 1/2SM BR OVC003 13/12 A2961 RMK AO2 T01330117
                 =
2018-04-26 03:06 METAR KLWM 260706Z AUTO VRB04KT 3SM BR OVC003 13/12 A2962 RMK AO2 T01330117 =
2018-04-26 02:54 METAR KLWM 260654Z AUTO 13003KT 2SM BR OVC003 13/12 A2962 RMK AO2 SLP029
                 T01330117 =
2018-04-26 02:43 METAR KLWM 260643Z AUTO VRB03KT 1 1/4SM BR OVC003 13/12 A2962 RMK AO2 T01280117
                 =
2018-04-26 02:16 METAR KLWM 260616Z AUTO 00000KT 3/4SM BR VV003 13/11 A2963 RMK AO2 T01280111 =

Support USWX by starting your Amazon purchase here.